Time;durP1;ratioP1;P1;durP2;ratioP2;P2;SDS_P1;SDS_P2;PMS_P1;PMS_P2;Temp;Humidity;BMP_temperature;BMP_pressure;BME280_temperature;BME280_humidity;BME280_pressure;Samples;Min_cycle;Max_cycle;Signal;HPM_P1;HPM_P2
2022/07/14 00:00:52;;;;;;;3.47;1.98;;;25.50;67.60;;;;;;4898275;29;20519;-78
2022/07/14 00:03:18;;;;;;;3.17;1.52;;;25.50;67.80;;;;;;4898221;29;20091;-78
2022/07/14 00:05:44;;;;;;;3.28;1.90;;;25.30;66.70;;;;;;4898468;29;20425;-78
2022/07/14 00:08:09;;;;;;;3.05;1.73;;;25.40;67.20;;;;;;4898528;29;20024;-78
2022/07/14 00:10:35;;;;;;;5.65;1.92;;;25.40;67.20;;;;;;4898781;29;20037;-78
2022/07/14 00:13:01;;;;;;;3.97;1.85;;;25.40;67.20;;;;;;4898249;29;20033;-78
2022/07/14 00:15:27;;;;;;;8.20;2.10;;;25.30;66.50;;;;;;4897042;29;20043;-78
2022/07/14 00:17:55;;;;;;;4.78;1.80;;;25.30;66.80;;;;;;4898282;29;20028;-78
2022/07/14 00:20:21;;;;;;;5.18;2.00;;;25.30;66.80;;;;;;4898073;29;20080;-78
2022/07/14 00:22:47;;;;;;;9.07;1.73;;;25.20;67.10;;;;;;4898233;29;20040;-78
2022/07/14 00:25:13;;;;;;;6.85;1.90;;;25.10;67.20;;;;;;4897231;29;20032;-79
2022/07/14 00:27:39;;;;;;;6.55;1.95;;;25.20;67.20;;;;;;4898172;29;20025;-78
2022/07/14 00:30:05;;;;;;;3.58;2.10;;;25.20;67.20;;;;;;4898019;29;20440;-78
2022/07/14 00:32:34;;;;;;;5.20;2.20;;;25.20;67.40;;;;;;4898239;29;20032;-78
2022/07/14 00:34:59;;;;;;;3.13;2.00;;;25.20;67.70;;;;;;4897927;29;20036;-78
2022/07/14 00:37:25;;;;;;;5.78;2.08;;;25.10;68.10;;;;;;4898411;29;20378;-78
2022/07/14 00:39:57;;;;;;;4.13;2.00;;;25.00;68.60;;;;;;4897781;29;20063;-78
2022/07/14 00:42:40;;;;;;;3.10;2.15;;;24.90;68.80;;;;;;4897795;29;20585;-78
2022/07/14 00:45:11;;;;;;;4.13;1.88;;;25.10;69.50;;;;;;4898015;29;20076;-79
2022/07/14 00:47:37;;;;;;;6.40;2.58;;;25.00;69.80;;;;;;4898047;29;20036;-78
2022/07/14 00:50:05;;;;;;;6.15;2.40;;;24.90;70.90;;;;;;4897764;29;20560;-78
2022/07/14 00:52:31;;;;;;;4.53;2.50;;;25.00;72.40;;;;;;4897502;29;20056;-78
2022/07/14 00:54:57;;;;;;;7.32;2.42;;;25.00;72.90;;;;;;4897863;29;20028;-78
2022/07/14 00:57:24;;;;;;;8.00;2.40;;;24.90;73.70;;;;;;4897617;29;20108;-78
2022/07/14 00:59:50;;;;;;;5.20;2.58;;;24.90;74.40;;;;;;4897890;29;20033;-78
2022/07/14 01:02:18;;;;;;;6.18;2.85;;;24.80;76.00;;;;;;4897799;29;20088;-78
2022/07/14 01:04:45;;;;;;;5.93;3.03;;;24.80;77.30;;;;;;4897890;29;20436;-78
2022/07/14 01:07:15;;;;;;;4.65;2.90;;;24.70;80.10;;;;;;4897243;29;20025;-78
2022/07/14 01:09:42;;;;;;;7.30;3.42;;;24.70;82.60;;;;;;4898131;29;20052;-78
2022/07/14 01:12:09;;;;;;;6.75;3.40;;;24.70;84.30;;;;;;4897251;29;20536;-78
2022/07/14 01:14:38;;;;;;;7.28;3.50;;;24.70;86.40;;;;;;4900809;29;20029;-78
2022/07/14 01:17:06;;;;;;;7.75;3.90;;;24.70;87.50;;;;;;4901645;29;20088;-78
2022/07/14 01:19:33;;;;;;;7.00;4.15;;;24.40;90.80;;;;;;4898501;29;20366;-78
2022/07/14 01:21:59;;;;;;;6.85;4.40;;;24.40;91.10;;;;;;4883974;29;20083;-78
2022/07/14 01:24:25;;;;;;;8.75;4.60;;;24.60;91.30;;;;;;4901494;29;20426;-78
2022/07/14 01:26:52;;;;;;;6.10;4.43;;;24.50;92.00;;;;;;4901334;29;20024;-79
2022/07/14 01:29:18;;;;;;;7.22;4.47;;;24.50;92.20;;;;;;4901296;29;20021;-78
2022/07/14 01:31:44;;;;;;;6.55;4.68;;;24.20;93.20;;;;;;4901566;29;20032;-78
2022/07/14 01:34:10;;;;;;;10.63;5.03;;;24.10;94.20;;;;;;4901281;29;20033;-78
2022/07/14 01:36:36;;;;;;;8.15;4.95;;;24.00;94.80;;;;;;4901274;29;20545;-78
2022/07/14 01:39:04;;;;;;;8.05;5.20;;;24.00;95.10;;;;;;4901201;29;20028;-78
2022/07/14 01:41:29;;;;;;;9.27;5.63;;;24.00;95.20;;;;;;4896946;29;20033;-78
2022/07/14 01:43:55;;;;;;;12.13;5.38;;;23.90;96.00;;;;;;4882188;29;20146;-78
2022/07/14 01:46:21;;;;;;;8.18;5.53;;;24.00;96.20;;;;;;4882260;29;20478;-78
2022/07/14 01:48:47;;;;;;;8.82;5.70;;;24.00;96.40;;;;;;4891088;29;20041;-78
2022/07/14 01:51:13;;;;;;;8.27;5.95;;;24.10;96.10;;;;;;4894203;29;20037;-78
2022/07/14 01:53:41;;;;;;;7.40;5.85;;;24.10;96.40;;;;;;4898251;29;20048;-78
2022/07/14 01:56:07;;;;;;;14.02;6.25;;;24.10;96.70;;;;;;4900794;29;20039;-78
2022/07/14 01:58:33;;;;;;;9.93;6.13;;;23.80;97.50;;;;;;4900731;29;20027;-78
2022/07/14 02:03:45;;;;;;;10.73;6.72;;;23.90;97.80;;;;;;4901063;29;20035;-78
2022/07/14 02:06:11;;;;;;;10.18;6.28;;;23.70;98.60;;;;;;4900413;29;20032;-78
2022/07/14 02:08:37;;;;;;;9.73;6.45;;;23.40;99.90;;;;;;4899543;29;20089;-78
2022/07/14 02:13:46;;;;;;;17.75;7.00;;;23.30;99.90;;;;;;4900270;29;20091;-78
2022/07/14 02:16:12;;;;;;;9.57;6.18;;;23.10;99.90;;;;;;4900505;29;20116;-78
2022/07/14 02:18:38;;;;;;;9.60;6.13;;;23.20;99.90;;;;;;4900628;29;20480;-78
2022/07/14 02:21:03;;;;;;;7.25;6.07;;;23.10;99.90;;;;;;4900403;29;20029;-78
2022/07/14 02:23:29;;;;;;;10.10;6.75;;;23.30;99.90;;;;;;4900307;29;20104;-78
2022/07/14 02:25:55;;;;;;;9.07;6.80;;;23.10;99.90;;;;;;4898769;29;20029;-78
2022/07/14 02:28:20;;;;;;;12.30;6.75;;;23.00;99.90;;;;;;4900029;29;20477;-78
2022/07/14 02:30:46;;;;;;;11.90;6.57;;;23.00;99.90;;;;;;4900286;29;20066;-78
2022/07/14 02:33:12;;;;;;;12.10;7.57;;;23.10;99.90;;;;;;4882913;29;20067;-78
2022/07/14 02:35:37;;;;;;;10.15;7.07;;;23.00;99.90;;;;;;4881489;29;20033;-78
2022/07/14 02:38:03;;;;;;;11.60;7.60;;;22.90;99.90;;;;;;4881404;29;20077;-78
2022/07/14 02:40:29;;;;;;;8.77;6.63;;;22.80;99.90;;;;;;4881501;29;20040;-78
2022/07/14 02:42:55;;;;;;;11.32;7.30;;;22.70;99.90;;;;;;4881352;29;20025;-78
2022/07/14 02:45:20;;;;;;;13.30;7.22;;;22.70;99.90;;;;;;4881435;29;20112;-78
2022/07/14 02:47:46;;;;;;;12.77;7.13;;;22.70;99.90;;;;;;4881434;29;20037;-78
2022/07/14 02:50:12;;;;;;;13.13;6.45;;;22.60;99.90;;;;;;4897398;29;20040;-78
2022/07/14 02:52:38;;;;;;;14.48;6.35;;;22.60;99.90;;;;;;4899192;29;20120;-78
2022/07/14 02:55:04;;;;;;;9.65;6.65;;;22.70;99.90;;;;;;4899846;29;20055;-78
2022/07/14 02:57:30;;;;;;;13.00;7.53;;;22.60;99.90;;;;;;4899646;29;20432;-78
2022/07/14 02:59:56;;;;;;;11.75;6.55;;;22.40;99.90;;;;;;4900104;29;20115;-78
2022/07/14 03:02:21;;;;;;;8.55;6.95;;;22.50;99.90;;;;;;4899697;29;20025;-78
2022/07/14 03:04:47;;;;;;;11.30;7.03;;;22.40;99.90;;;;;;4895280;29;20089;-78
2022/07/14 03:07:13;;;;;;;12.23;8.20;;;22.20;99.90;;;;;;4880538;29;20085;-78
2022/07/14 03:09:39;;;;;;;10.77;7.10;;;22.20;99.90;;;;;;4880938;29;20040;-78
2022/07/14 03:12:04;;;;;;;12.80;7.75;;;22.30;99.90;;;;;;4880753;29;20067;-78
2022/07/14 03:14:30;;;;;;;12.63;8.25;;;22.20;99.90;;;;;;4881088;29;20061;-78
2022/07/14 03:16:56;;;;;;;12.95;7.32;;;22.30;99.90;;;;;;4880889;29;20084;-78
2022/07/14 03:19:21;;;;;;;13.00;8.50;;;22.10;99.90;;;;;;4884083;29;20477;-78
2022/07/14 03:21:47;;;;;;;10.02;8.10;;;22.00;99.90;;;;;;4899120;29;20032;-78
2022/07/14 03:24:13;;;;;;;12.57;8.32;;;21.90;99.90;;;;;;4899248;29;20092;-78
2022/07/14 03:26:39;;;;;;;12.20;8.48;;;22.00;99.90;;;;;;4899112;29;20099;-78
2022/07/14 03:29:05;;;;;;;10.77;8.27;;;22.00;99.90;;;;;;4899369;29;20441;-78
2022/07/14 03:31:31;;;;;;;15.25;8.95;;;22.00;99.90;;;;;;4899244;29;20370;-78
2022/07/14 03:33:57;;;;;;;10.20;8.20;;;21.90;99.90;;;;;;4899208;29;20039;-78
2022/07/14 03:36:22;;;;;;;10.35;7.72;;;21.80;99.90;;;;;;4897658;29;20062;-80
2022/07/14 03:38:49;;;;;;;13.30;7.60;;;21.90;99.90;;;;;;4880400;29;20057;-78
2022/07/14 03:41:14;;;;;;;9.70;7.63;;;21.70;99.90;;;;;;4880387;29;20435;-78
2022/07/14 03:43:40;;;;;;;12.35;8.75;;;21.70;99.90;;;;;;4880570;29;20036;-78
2022/07/14 03:46:06;;;;;;;12.20;8.70;;;21.60;99.90;;;;;;4880361;29;20462;-78
2022/07/14 03:48:33;;;;;;;11.98;8.10;;;21.70;99.90;;;;;;4885329;29;20104;-78
2022/07/14 03:51:00;;;;;;;12.25;7.53;;;21.80;99.90;;;;;;4898827;29;20405;-78
2022/07/14 03:53:26;;;;;;;9.23;7.72;;;21.80;99.90;;;;;;4897996;29;20490;-78
2022/07/14 03:55:51;;;;;;;10.85;8.32;;;21.60;99.90;;;;;;4898863;29;20056;-78
2022/07/14 03:58:17;;;;;;;10.90;8.30;;;21.60;99.90;;;;;;4898346;29;20040;-78
2022/07/14 04:00:43;;;;;;;12.70;8.20;;;21.60;99.90;;;;;;4898717;29;20076;-78
2022/07/14 04:03:09;;;;;;;12.07;8.13;;;21.70;99.90;;;;;;4898981;29;20043;-78
2022/07/14 04:05:34;;;;;;;9.10;7.65;;;21.50;99.90;;;;;;4898401;29;20035;-78
2022/07/14 04:08:00;;;;;;;12.52;9.18;;;21.60;99.90;;;;;;4898482;29;20420;-78
2022/07/14 04:10:26;;;;;;;13.70;8.50;;;21.60;99.90;;;;;;4898217;29;20033;-78
2022/07/14 04:12:51;;;;;;;12.07;8.20;;;21.60;99.90;;;;;;4898400;29;20037;-78
2022/07/14 04:15:17;;;;;;;10.07;8.18;;;21.60;99.90;;;;;;4898311;29;20024;-79
2022/07/14 04:17:43;;;;;;;12.07;9.02;;;21.40;99.90;;;;;;4898418;29;20104;-78
2022/07/14 04:20:09;;;;;;;12.45;9.40;;;21.40;99.90;;;;;;4898381;29;20021;-78
2022/07/14 04:22:35;;;;;;;15.73;9.40;;;21.50;99.90;;;;;;4898109;29;20028;-78
2022/07/14 04:25:00;;;;;;;11.85;9.10;;;21.40;99.90;;;;;;4896967;29;20095;-78
2022/07/14 04:27:26;;;;;;;14.20;9.70;;;21.40;99.90;;;;;;4898313;29;20401;-78
2022/07/14 04:29:52;;;;;;;11.02;9.02;;;21.40;99.90;;;;;;4898454;29;20370;-79
2022/07/14 04:32:18;;;;;;;13.32;9.82;;;21.40;99.90;;;;;;4898222;29;20472;-78
2022/07/14 04:34:44;;;;;;;14.18;9.85;;;21.40;99.90;;;;;;4897899;29;20080;-78
2022/07/14 04:37:11;;;;;;;11.70;9.63;;;21.30;99.90;;;;;;4898103;29;20457;-78
2022/07/14 04:39:36;;;;;;;12.35;10.23;;;21.30;99.90;;;;;;4897779;29;20036;-78
2022/07/14 04:42:03;;;;;;;12.38;10.25;;;21.30;99.90;;;;;;4898370;29;20040;-78
2022/07/14 04:44:29;;;;;;;15.10;10.65;;;21.50;99.90;;;;;;4898076;29;20022;-78
2022/07/14 04:46:55;;;;;;;12.85;9.88;;;21.40;99.90;;;;;;4897865;29;20767;-78
2022/07/14 04:52:05;;;;;;;18.05;11.25;;;21.40;99.90;;;;;;4898004;29;20047;-78
2022/07/14 04:54:33;;;;;;;20.10;11.18;;;21.50;99.90;;;;;;4897915;29;20029;-78
2022/07/14 04:57:00;;;;;;;12.43;10.27;;;21.60;99.90;;;;;;4886556;29;20549;-78
2022/07/14 04:59:26;;;;;;;12.80;10.00;;;21.60;99.90;;;;;;4879338;29;20025;-80
2022/07/14 05:01:52;;;;;;;15.65;10.55;;;21.50;99.90;;;;;;4878035;29;20081;-80
2022/07/14 05:04:18;;;;;;;15.20;10.93;;;21.50;99.90;;;;;;4878901;29;20041;-80
2022/07/14 05:06:46;;;;;;;12.70;10.18;;;21.50;99.90;;;;;;4879172;29;20025;-81
2022/07/14 05:09:13;;;;;;;13.60;9.70;;;21.60;99.90;;;;;;4879017;29;20490;-80
2022/07/14 05:11:39;;;;;;;14.27;10.40;;;21.50;99.90;;;;;;4878019;29;20469;-81
2022/07/14 05:14:05;;;;;;;16.45;10.23;;;21.60;99.90;;;;;;4878903;29;20041;-80
2022/07/14 05:16:31;;;;;;;12.65;9.75;;;21.60;99.90;;;;;;4879031;29;20482;-80
2022/07/14 05:18:57;;;;;;;14.43;9.75;;;21.70;99.90;;;;;;4878887;29;20032;-80
2022/07/14 05:21:24;;;;;;;12.60;9.32;;;21.60;99.90;;;;;;4879013;29;20036;-81
2022/07/14 05:23:50;;;;;;;12.10;9.73;;;21.60;99.90;;;;;;4886844;29;20401;-81
2022/07/14 05:26:17;;;;;;;12.65;9.68;;;21.60;99.90;;;;;;4897110;29;20037;-80
2022/07/14 05:28:43;;;;;;;10.65;9.23;;;21.70;99.90;;;;;;4897504;29;20122;-80
2022/07/14 05:31:08;;;;;;;12.98;9.43;;;21.70;99.90;;;;;;4897896;29;20187;-80
2022/07/14 05:33:35;;;;;;;11.88;8.63;;;21.70;99.90;;;;;;4897435;29;20108;-81
2022/07/14 05:36:01;;;;;;;11.25;8.70;;;21.70;99.90;;;;;;4897513;29;20035;-81
2022/07/14 05:38:27;;;;;;;16.95;9.85;;;21.70;99.90;;;;;;4895190;29;20037;-81
2022/07/14 05:40:53;;;;;;;10.38;7.68;;;21.80;99.90;;;;;;4897442;29;20036;-81
2022/07/14 05:43:19;;;;;;;9.93;8.55;;;21.80;99.90;;;;;;4897558;29;20024;-80
2022/07/14 05:45:46;;;;;;;12.45;8.48;;;21.90;99.90;;;;;;4897351;29;20108;-80
2022/07/14 05:48:12;;;;;;;12.63;7.80;;;21.90;99.90;;;;;;4897310;29;20485;-80
2022/07/14 05:50:37;;;;;;;9.43;7.35;;;21.90;99.90;;;;;;4893990;29;20036;-80
2022/07/14 05:53:03;;;;;;;12.68;7.80;;;22.00;99.90;;;;;;4897203;29;20068;-80
2022/07/14 05:55:29;;;;;;;12.05;7.80;;;22.00;99.90;;;;;;4896059;29;20084;-80
2022/07/14 05:57:55;;;;;;;10.75;7.18;;;22.10;99.90;;;;;;4897566;29;20032;-80
2022/07/14 06:00:20;;;;;;;9.90;7.43;;;22.20;99.90;;;;;;4899500;29;20035;-80
2022/07/14 06:02:46;;;;;;;8.55;6.20;;;22.20;99.90;;;;;;4900442;29;20036;-80
2022/07/14 06:05:12;;;;;;;12.20;6.40;;;22.30;99.90;;;;;;4898733;29;20039;-80
2022/07/14 06:07:38;;;;;;;9.10;7.15;;;22.30;99.90;;;;;;4900357;29;20446;-80
2022/07/14 06:10:05;;;;;;;12.07;6.40;;;22.40;99.90;;;;;;4900724;29;20029;-80
2022/07/14 06:12:32;;;;;;;8.25;6.60;;;22.50;99.90;;;;;;4900897;29;20024;-80
2022/07/14 06:14:57;;;;;;;10.32;6.60;;;22.50;99.90;;;;;;4900532;29;20489;-81
2022/07/14 06:17:23;;;;;;;9.95;6.00;;;22.60;99.90;;;;;;4900415;29;20107;-80
2022/07/14 06:19:49;;;;;;;8.15;5.88;;;22.70;99.90;;;;;;4900511;29;20426;-80
2022/07/14 06:22:14;;;;;;;10.45;6.13;;;22.80;99.90;;;;;;4900368;29;20075;-80
2022/07/14 06:24:43;;;;;;;13.93;5.93;;;22.90;99.90;;;;;;4900539;29;20056;-80
2022/07/14 06:27:09;;;;;;;9.60;6.00;;;22.90;99.90;;;;;;4900181;29;20028;-76
2022/07/14 06:29:35;;;;;;;9.20;6.05;;;23.00;99.90;;;;;;4900312;29;20037;-77
2022/07/14 06:32:01;;;;;;;9.63;5.00;;;23.10;99.90;;;;;;4900088;29;20532;-76
2022/07/14 06:34:27;;;;;;;7.10;5.00;;;23.20;99.90;;;;;;4898705;29;20119;-77
2022/07/14 06:36:53;;;;;;;7.43;4.97;;;23.30;99.90;;;;;;4898544;29;20056;-80
2022/07/14 06:39:19;;;;;;;8.85;5.18;;;23.20;99.90;;;;;;4899894;29;20515;-86
2022/07/14 06:41:45;;;;;;;6.13;4.80;;;23.30;99.90;;;;;;4890960;29;20051;-77
2022/07/14 06:44:10;;;;;;;6.07;4.63;;;23.30;99.90;;;;;;4894540;29;20379;-77
2022/07/14 06:46:37;;;;;;;7.60;4.15;;;23.40;99.90;;;;;;4895125;29;20037;-77
2022/07/14 06:49:03;;;;;;;6.18;4.13;;;23.50;99.90;;;;;;4899960;29;20035;-77
2022/07/14 06:51:29;;;;;;;6.90;3.70;;;23.50;99.90;;;;;;4899732;29;20037;-77
2022/07/14 06:53:55;;;;;;;9.20;4.15;;;23.60;99.90;;;;;;4899206;29;20068;-78
2022/07/14 06:56:21;;;;;;;11.48;4.35;;;23.60;99.90;;;;;;4899324;29;20025;-77
2022/07/14 06:58:46;;;;;;;6.80;4.90;;;23.80;99.90;;;;;;4899212;29;20119;-77
2022/07/14 07:01:12;;;;;;;7.90;5.53;;;23.90;99.90;;;;;;4897411;29;20131;-76
2022/07/14 07:03:37;;;;;;;7.53;3.97;;;23.90;99.90;;;;;;4890879;29;20028;-77
2022/07/14 07:08:47;;;;;;;9.27;4.72;;;24.00;99.90;;;;;;4892484;29;20087;-76
2022/07/14 07:11:13;;;;;;;5.78;4.20;;;24.10;99.90;;;;;;4897933;29;20029;-76
2022/07/14 07:13:39;;;;;;;10.20;4.13;;;24.20;99.90;;;;;;4894553;29;20035;-76
2022/07/14 07:16:06;;;;;;;5.32;4.45;;;24.30;99.90;;;;;;4895993;29;20032;-76
2022/07/14 07:18:34;;;;;;;8.15;4.60;;;24.30;99.90;;;;;;4895341;29;20355;-76
2022/07/14 07:21:00;;;;;;;7.00;4.32;;;24.40;99.90;;;;;;4889357;29;20378;-75
2022/07/14 07:23:26;;;;;;;10.02;4.28;;;24.40;99.90;;;;;;4893591;29;20040;-77
2022/07/14 07:25:52;;;;;;;5.05;3.97;;;24.50;99.90;;;;;;4890750;29;20029;-76
2022/07/14 07:28:18;;;;;;;6.55;3.72;;;24.60;99.90;;;;;;4899127;29;20033;-81
2022/07/14 07:30:43;;;;;;;8.45;4.15;;;24.70;99.90;;;;;;4898447;29;20095;-81
2022/07/14 07:33:09;;;;;;;5.70;3.80;;;24.70;99.90;;;;;;4898580;29;20029;-80
2022/07/14 07:35:35;;;;;;;6.30;4.10;;;24.80;99.90;;;;;;4899309;29;20035;-81
2022/07/14 07:38:01;;;;;;;6.20;3.53;;;24.90;99.90;;;;;;4887819;29;20103;-80
2022/07/14 07:40:27;;;;;;;5.50;3.72;;;24.90;99.90;;;;;;4898903;29;20049;-81
2022/07/14 07:42:53;;;;;;;6.28;3.45;;;25.00;99.90;;;;;;4898329;29;20033;-81
2022/07/14 07:45:19;;;;;;;7.60;3.72;;;25.20;99.90;;;;;;4898468;29;20021;-81
2022/07/14 08:45:43;;;;;;;9.15;2.67;;;28.80;86.60;;;;;;5878760;23;20034;-81
2022/07/14 08:48:10;;;;;;;5.38;2.70;;;29.00;82.60;;;;;;4915863;29;20036;-80
2022/07/14 08:50:37;;;;;;;8.50;2.85;;;29.20;80.90;;;;;;4915100;29;20484;-80
2022/07/14 08:53:03;;;;;;;4.93;3.13;;;29.50;81.00;;;;;;4916637;29;20055;-79
2022/07/14 08:55:30;;;;;;;5.28;2.35;;;29.80;80.00;;;;;;4915367;29;20035;-80
2022/07/14 08:57:56;;;;;;;4.68;2.97;;;30.20;78.80;;;;;;4914316;29;20391;-80
2022/07/14 09:00:22;;;;;;;5.80;3.15;;;29.90;78.50;;;;;;4915225;29;20043;-81
2022/07/14 09:02:59;;;;;;;11.43;2.70;;;29.70;78.30;;;;;;4915554;29;20107;-81
2022/07/14 09:05:27;;;;;;;7.47;2.80;;;30.00;78.80;;;;;;4915222;29;20091;-81
2022/07/14 09:07:56;;;;;;;3.88;2.72;;;30.20;75.20;;;;;;4915126;29;20012;-77
2022/07/14 09:10:26;;;;;;;6.75;2.80;;;30.50;74.30;;;;;;4912266;29;20107;-79
2022/07/14 09:13:08;;;;;;;11.57;3.15;;;30.60;72.10;;;;;;4913439;29;20029;-75
2022/07/14 09:15:46;;;;;;;6.03;2.55;;;30.90;71.90;;;;;;4915507;29;20436;-74
2022/07/14 09:18:24;;;;;;;4.50;2.90;;;31.10;72.70;;;;;;4915452;29;20042;-79
2022/07/14 09:20:52;;;;;;;7.82;3.00;;;31.30;72.10;;;;;;4915195;29;20056;-82
2022/07/14 09:23:29;;;;;;;4.88;2.80;;;31.10;72.30;;;;;;4915641;29;20035;-77
2022/07/14 09:26:13;;;;;;;5.65;2.58;;;31.00;72.60;;;;;;4915550;29;20468;-77
2022/07/14 09:28:40;;;;;;;4.57;3.13;;;31.30;72.10;;;;;;4915395;29;20024;-73
2022/07/14 09:31:22;;;;;;;10.20;3.03;;;31.50;70.70;;;;;;4916213;29;20448;-73
2022/07/14 09:33:59;;;;;;;11.70;3.55;;;32.00;69.70;;;;;;4910775;29;20586;-73
2022/07/14 09:36:31;;;;;;;4.75;2.45;;;31.90;69.60;;;;;;4919591;29;20064;-73
2022/07/14 09:39:08;;;;;;;4.40;2.70;;;31.80;68.00;;;;;;4911076;29;20530;-82
2022/07/14 09:41:47;;;;;;;4.68;2.85;;;32.30;67.60;;;;;;4908410;29;20029;-82
2022/07/14 09:44:17;;;;;;;3.55;2.80;;;32.40;67.60;;;;;;4916251;29;20027;-82
2022/07/14 09:46:47;;;;;;;5.68;2.70;;;32.20;67.80;;;;;;4913284;29;20087;-80
2022/07/14 09:49:15;;;;;;;3.40;2.67;;;32.60;66.90;;;;;;4903954;29;20507;-80
2022/07/14 09:51:56;;;;;;;4.43;2.80;;;32.70;66.00;;;;;;4910765;29;20026;-80
2022/07/14 09:54:41;;;;;;;6.45;3.08;;;32.80;64.70;;;;;;4909970;29;20048;-80
2022/07/14 09:57:12;;;;;;;9.27;2.90;;;32.90;65.40;;;;;;4905213;29;20111;-81
2022/07/14 09:59:50;;;;;;;6.43;2.60;;;33.10;63.70;;;;;;4911720;29;20079;-82
2022/07/14 10:02:26;;;;;;;4.78;2.88;;;33.10;63.20;;;;;;4906485;29;20028;-84
2022/07/14 10:04:54;;;;;;;3.40;2.75;;;33.20;63.60;;;;;;4919535;29;20028;-84
2022/07/14 10:07:22;;;;;;;6.13;2.78;;;33.40;62.20;;;;;;4919009;29;20023;-82
2022/07/14 10:10:07;;;;;;;7.90;2.65;;;33.50;61.30;;;;;;4918890;29;20496;-74
2022/07/14 10:12:36;;;;;;;6.72;2.90;;;33.50;61.40;;;;;;4919281;29;20031;-81
2022/07/14 10:15:08;;;;;;;5.43;2.60;;;33.90;60.70;;;;;;4918587;29;20024;-80
2022/07/14 10:17:36;;;;;;;6.35;2.90;;;33.80;59.60;;;;;;4919006;29;20048;-82
2022/07/14 10:20:07;;;;;;;4.70;2.90;;;34.00;60.80;;;;;;4919130;29;20531;-77
2022/07/14 10:22:34;;;;;;;5.97;2.73;;;34.00;59.60;;;;;;4918122;29;20519;-80
2022/07/14 10:25:06;;;;;;;3.10;2.25;;;34.30;58.90;;;;;;4918453;29;20043;-78
2022/07/14 10:27:32;;;;;;;5.60;2.53;;;34.60;58.40;;;;;;4918215;29;20020;-79
2022/07/14 10:29:59;;;;;;;6.03;2.67;;;34.40;57.30;;;;;;4909279;29;20024;-80
2022/07/14 10:32:34;;;;;;;4.47;2.95;;;34.30;57.30;;;;;;4909739;29;20490;-80
2022/07/14 10:35:10;;;;;;;7.55;2.70;;;34.00;57.40;;;;;;4907413;29;20080;-80
2022/07/14 10:38:09;;;;;;;4.18;2.80;;;34.40;58.10;;;;;;4910942;29;20031;-81
2022/07/14 10:40:47;;;;;;;3.80;3.10;;;34.70;57.10;;;;;;4918432;29;20391;-81
2022/07/14 10:43:17;;;;;;;4.43;2.53;;;34.90;57.10;;;;;;4918469;29;20039;-81
2022/07/14 10:45:50;;;;;;;4.15;2.95;;;34.90;56.20;;;;;;4917576;29;20024;-81
2022/07/14 10:48:36;;;;;;;4.35;2.47;;;34.70;55.90;;;;;;4900681;29;20040;-82
2022/07/14 10:51:14;;;;;;;18.10;13.15;;;34.80;55.60;;;;;;4918171;29;20128;-84
2022/07/14 10:53:58;;;;;;;8.40;3.00;;;34.80;54.20;;;;;;4915307;29;20445;-84
2022/07/14 10:56:28;;;;;;;8.55;2.75;;;35.20;55.20;;;;;;4913787;29;20036;-85
2022/07/14 10:59:28;;;;;;;5.28;3.47;;;35.30;54.80;;;;;;4913356;29;20032;-84
2022/07/14 11:02:14;;;;;;;5.53;2.90;;;35.30;54.60;;;;;;4910333;29;20051;-84
2022/07/14 11:05:04;;;;;;;4.13;2.75;;;35.10;55.30;;;;;;4915687;29;20032;-84
2022/07/14 11:07:32;;;;;;;6.53;2.80;;;35.40;53.30;;;;;;4902243;29;20516;-85
2022/07/14 11:09:58;;;;;;;5.30;2.65;;;35.40;53.20;;;;;;4909865;29;20023;-83
2022/07/14 11:12:24;;;;;;;4.28;2.95;;;35.70;51.90;;;;;;4902128;29;20750;-85
2022/07/14 11:14:50;;;;;;;4.63;2.67;;;35.90;51.50;;;;;;4915167;29;20028;-84
2022/07/14 11:17:33;;;;;;;3.65;2.75;;;35.60;51.30;;;;;;4913731;29;20420;-85
2022/07/14 11:19:59;;;;;;;4.75;2.75;;;35.70;50.50;;;;;;4915773;29;20039;-85
2022/07/14 11:22:25;;;;;;;5.10;2.80;;;35.50;50.90;;;;;;4915043;29;20036;-75
2022/07/14 11:24:54;;;;;;;2.83;2.30;;;36.00;51.30;;;;;;4915982;29;20111;-79
2022/07/14 11:27:22;;;;;;;3.45;2.47;;;35.90;50.00;;;;;;4911435;29;20027;-75
2022/07/14 11:29:48;;;;;;;3.25;2.50;;;35.80;50.60;;;;;;4915547;29;20028;-84
2022/07/14 11:32:30;;;;;;;6.25;2.72;;;36.00;50.00;;;;;;4907996;29;20033;-82
2022/07/14 11:38:01;;;;;;;4.53;3.13;;;36.40;50.50;;;;;;4909542;29;20401;-82
2022/07/14 11:40:51;;;;;;;5.22;3.40;;;36.60;50.40;;;;;;4907330;29;20095;-82
2022/07/14 11:43:29;;;;;;;3.65;2.40;;;36.40;50.70;;;;;;4911402;29;20028;-81
2022/07/14 11:46:10;;;;;;;4.30;2.60;;;36.70;49.70;;;;;;4911764;29;20040;-82
2022/07/14 11:48:39;;;;;;;4.18;2.25;;;36.60;49.60;;;;;;4908979;29;20062;-82
2022/07/14 11:51:08;;;;;;;4.63;2.53;;;36.60;50.40;;;;;;4906022;29;20066;-81
2022/07/14 11:53:35;;;;;;;2.95;2.50;;;36.30;50.40;;;;;;4909097;29;20039;-82
2022/07/14 11:56:02;;;;;;;5.90;2.90;;;36.60;49.10;;;;;;4915168;29;20028;-82
2022/07/14 11:58:30;;;;;;;4.10;2.72;;;36.00;49.10;;;;;;4916806;29;20093;-82
2022/07/14 12:00:58;;;;;;;4.15;2.65;;;36.50;49.10;;;;;;4915645;29;20404;-82
2022/07/14 12:03:25;;;;;;;7.00;2.60;;;36.50;48.80;;;;;;4913660;29;20115;-82
2022/07/14 12:05:54;;;;;;;3.17;2.67;;;36.40;48.80;;;;;;4908318;29;20392;-83
2022/07/14 12:08:25;;;;;;;5.78;2.72;;;36.50;48.60;;;;;;4908930;29;20056;-82
2022/07/14 12:10:51;;;;;;;5.32;2.75;;;36.10;48.60;;;;;;4909227;29;20024;-82
2022/07/14 12:13:18;;;;;;;6.57;3.00;;;36.60;48.10;;;;;;4906003;29;20448;-83
2022/07/14 12:15:44;;;;;;;7.57;3.20;;;36.40;48.20;;;;;;4907793;29;20035;-83
2022/07/14 12:18:11;;;;;;;4.78;2.30;;;36.60;46.70;;;;;;4906637;29;20048;-83
2022/07/14 12:20:50;;;;;;;3.78;2.40;;;36.70;43.40;;;;;;4910687;29;20422;-80
2022/07/14 12:23:16;;;;;;;9.35;2.45;;;36.90;44.30;;;;;;4911669;29;20036;-79
2022/07/14 12:25:51;;;;;;;2.88;2.00;;;37.10;43.30;;;;;;4915695;29;20035;-80
2022/07/14 12:28:21;;;;;;;3.03;2.20;;;37.00;43.00;;;;;;4912202;29;20091;-83
2022/07/14 12:30:49;;;;;;;9.13;2.22;;;37.40;41.20;;;;;;4909808;29;20016;-83
2022/07/14 12:33:24;;;;;;;3.20;1.98;;;37.10;41.70;;;;;;4911755;29;20115;-83
2022/07/14 12:35:55;;;;;;;3.45;2.20;;;37.20;42.30;;;;;;4907852;29;20100;-83
2022/07/14 12:38:22;;;;;;;4.18;2.15;;;37.50;40.70;;;;;;4908239;29;20024;-83
2022/07/14 12:41:00;;;;;;;4.50;2.85;;;37.60;41.50;;;;;;4904820;29;20016;-83
2022/07/14 12:43:28;;;;;;;6.25;2.40;;;37.70;41.50;;;;;;4913844;29;20024;-84
2022/07/14 12:46:08;;;;;;;5.07;2.40;;;37.50;41.90;;;;;;4912831;29;20036;-84
2022/07/14 12:48:55;;;;;;;3.70;2.63;;;37.70;41.50;;;;;;4908085;29;20024;-81
2022/07/14 12:51:24;;;;;;;4.82;2.53;;;37.40;41.40;;;;;;4904420;29;20036;-82
2022/07/14 12:54:11;;;;;;;6.05;2.28;;;37.50;41.90;;;;;;4911151;29;20028;-80
2022/07/14 12:56:39;;;;;;;4.53;2.40;;;37.70;41.70;;;;;;4912395;29;20043;-78
2022/07/14 12:59:08;;;;;;;6.70;3.10;;;37.50;41.60;;;;;;4915316;29;20020;-79
2022/07/14 13:01:47;;;;;;;2.60;2.40;;;37.30;41.20;;;;;;4915251;29;20076;-79
2022/07/14 13:04:26;;;;;;;4.75;2.33;;;37.70;41.40;;;;;;4909518;29;20421;-79
2022/07/14 13:06:52;;;;;;;6.72;2.30;;;37.90;40.60;;;;;;4915383;29;20032;-78
2022/07/14 13:09:18;;;;;;;8.00;2.47;;;37.70;40.20;;;;;;4914200;29;20015;-78
2022/07/14 13:11:45;;;;;;;7.05;2.47;;;37.40;40.10;;;;;;4915933;29;20099;-80
2022/07/14 13:14:12;;;;;;;3.97;2.40;;;37.40;40.20;;;;;;4916113;29;20020;-78
2022/07/14 13:16:43;;;;;;;4.82;2.70;;;37.30;40.60;;;;;;4913831;29;20424;-80
2022/07/14 13:19:13;;;;;;;5.45;2.47;;;37.00;41.50;;;;;;4915129;29;20046;-78
2022/07/14 13:21:58;;;;;;;5.50;2.53;;;36.80;41.70;;;;;;4915849;29;20032;-80
2022/07/14 13:24:27;;;;;;;4.38;2.90;;;37.00;40.70;;;;;;4909994;29;20028;-80
2022/07/14 13:27:15;;;;;;;4.57;2.88;;;37.30;41.10;;;;;;4915883;29;20413;-79
2022/07/14 13:29:46;;;;;;;3.90;2.55;;;37.30;40.80;;;;;;4914551;29;20079;-80
2022/07/14 13:32:13;;;;;;;6.13;2.40;;;37.30;39.60;;;;;;4913948;29;20067;-80
2022/07/14 13:34:39;;;;;;;3.85;2.42;;;37.30;40.40;;;;;;4915578;29;20032;-80
2022/07/14 13:37:12;;;;;;;3.20;2.22;;;37.40;40.70;;;;;;4915154;29;20028;-80
2022/07/14 13:39:40;;;;;;;5.93;2.78;;;37.00;40.90;;;;;;4914994;29;20021;-80
2022/07/14 13:42:06;;;;;;;5.18;2.40;;;37.00;39.80;;;;;;4914732;29;20028;-80
2022/07/14 13:44:31;;;;;;;4.30;2.55;;;37.40;41.40;;;;;;4914271;29;20650;-80
2022/07/14 13:46:59;;;;;;;6.18;2.38;;;37.60;39.50;;;;;;4912050;29;20044;-80
2022/07/14 13:49:28;;;;;;;4.25;2.25;;;37.00;39.90;;;;;;4914083;29;20116;-80
2022/07/14 13:52:09;;;;;;;3.03;2.47;;;36.60;40.30;;;;;;4911959;29;20033;-80
2022/07/14 13:54:37;;;;;;;4.75;2.33;;;36.70;39.40;;;;;;4913712;29;20035;-80
2022/07/14 13:57:03;;;;;;;7.47;3.22;;;36.80;39.60;;;;;;4914880;29;20036;-80
2022/07/14 13:59:29;;;;;;;6.18;2.63;;;37.10;39.40;;;;;;4913717;29;20658;-80
2022/07/14 14:01:55;;;;;;;5.25;2.40;;;37.10;39.90;;;;;;4915189;29;20028;-80